General Aviation Weather

Text Reports

Enter one or more of the following location identifiers separated by a space:

Zip Code, Four-Character ICAO or Three-Character IATA airport codes.

METAR - Aviation Routine Weather Report
KUNO - West Plains, Missouri
Updated at 8:53 PM GMT on April 18, 2014 (3:53 PM CDT):
METAR KUNO 182053Z AUTO 07004KT 10SM SCT075 22/03 A3020 RMK AO2 SLP220 T02170033 58022
TAF - Terminal Area Forecast
KUNO - West Plains, Missouri
Updated at 8:53 PM GMT on April 18, 2014 (3:53 PM CDT):
No TAF is currently available for this location.
Decoded:
No decoded TAF is available.
PIREP - Pilot Weather Report
KUNO - West Plains, Missouri
Updated at 8:53 PM GMT on April 18, 2014 (3:53 PM CDT):
No PIREP is currently available for this location.
AIRMET - Airmens Meteorological Information
KUNO - West Plains, Missouri
Updated at 8:53 PM GMT on April 18, 2014 (3:53 PM CDT):
No AIRMET is currently available for this location.
SIGMET - Significant Meteorological Information
KUNO - West Plains, Missouri
Updated at 8:53 PM GMT on April 18, 2014 (3:53 PM CDT):
No SIGMET is currently available for this location.
NOTAM - Notice to Airmen
KUNO - West Plains, Missouri
Updated at 8:53 PM GMT on April 18, 2014 (3:53 PM CDT):
No NOTAM is currently available for this location.
Forecast Area
KUNO - West Plains, Missouri
Updated at 8:53 PM GMT on April 18, 2014 (3:53 PM CDT):
No NOTAM is currently available for this location.
Aviation Weather Maps